Time,TemperatureF,DewpointF,PressureIn,WindDirection,WindDirectionDegrees,WindSpeedMPH,WindSpeedGustMPH,Humidity,HourlyPrecipIn,Conditions,Clouds,dailyrainin,SoftwareType,DateUTC
2013-03-03 00:01:00,4.0,-3.0,-100.00,North,350,0.0,0.0,69,-99.99,,,-99.99,,2013-03-03 06:01:00,
2013-03-03 00:22:00,4.0,-3.0,-100.00,North,350,0.0,0.0,69,-99.99,,,-99.99,,2013-03-03 06:22:00,
2013-03-03 00:32:00,4.0,-3.0,-100.00,North,350,0.0,0.0,69,-99.99,,,-99.99,,2013-03-03 06:32:00,
2013-03-03 00:42:00,4.0,-3.0,-100.00,North,350,0.0,0.0,69,-99.99,,,-99.99,,2013-03-03 06:42:00,
2013-03-03 00:52:00,4.0,-3.0,-100.00,North,350,0.0,0.0,69,-99.99,,,-99.99,,2013-03-03 06:52:00,
2013-03-03 01:01:00,2.0,-4.0,-100.00,NNE,15,0.0,0.0,74,-99.99,,,-99.99,,2013-03-03 07:01:00,
2013-03-03 01:21:00,2.0,-4.0,-100.00,NNE,15,0.0,0.0,74,-99.99,,,-99.99,,2013-03-03 07:21:00,
2013-03-03 01:32:00,2.0,-4.0,-100.00,NNE,15,0.0,0.0,74,-99.99,,,-99.99,,2013-03-03 07:32:00,
2013-03-03 01:42:00,2.0,-4.0,-100.00,NNE,15,0.0,0.0,74,-99.99,,,-99.99,,2013-03-03 07:42:00,
2013-03-03 01:52:00,2.0,-4.0,-100.00,NNE,15,0.0,0.0,74,-99.99,,,-99.99,,2013-03-03 07:52:00,
2013-03-03 02:01:00,0.0,-5.0,-100.00,NW,325,0.0,0.0,78,-99.99,,,-99.99,,2013-03-03 08:01:00,
2013-03-03 02:21:00,0.0,-5.0,-100.00,NW,325,0.0,0.0,78,-99.99,,,-99.99,,2013-03-03 08:21:00,
2013-03-03 02:32:00,0.0,-5.0,-100.00,NW,325,0.0,0.0,78,-99.99,,,-99.99,,2013-03-03 08:32:00,
2013-03-03 02:42:00,0.0,-5.0,-100.00,NW,325,0.0,0.0,78,-99.99,,,-99.99,,2013-03-03 08:42:00,
2013-03-03 02:54:00,0.0,-5.0,-100.00,NW,325,0.0,0.0,78,-99.99,,,-99.99,,2013-03-03 08:54:00,
2013-03-03 03:01:00,0.0,-4.0,-100.00,North,10,0.0,0.0,82,-99.99,,,-99.99,,2013-03-03 09:01:00,
2013-03-03 03:21:00,0.0,-4.0,-100.00,North,10,0.0,0.0,82,-99.99,,,-99.99,,2013-03-03 09:21:00,
2013-03-03 03:32:00,0.0,-4.0,-100.00,North,10,0.0,0.0,82,-99.99,,,-99.99,,2013-03-03 09:32:00,
2013-03-03 03:42:00,0.0,-4.0,-100.00,North,10,0.0,0.0,82,-99.99,,,-99.99,,2013-03-03 09:42:00,
2013-03-03 03:52:00,0.0,-4.0,-100.00,North,10,0.0,0.0,82,-99.99,,,-99.99,,2013-03-03 09:52:00,
2013-03-03 04:01:00,0.0,-4.0,-100.00,NNE,15,0.0,0.0,86,-99.99,,,-99.99,,2013-03-03 10:01:00,
2013-03-03 04:22:00,0.0,-4.0,-100.00,NNE,15,0.0,0.0,86,-99.99,,,-99.99,,2013-03-03 10:22:00,
2013-03-03 04:32:00,0.0,-4.0,-100.00,NNE,15,0.0,0.0,86,-99.99,,,-99.99,,2013-03-03 10:32:00,
2013-03-03 04:42:00,0.0,-4.0,-100.00,NNE,15,0.0,0.0,86,-99.99,,,-99.99,,2013-03-03 10:42:00,
2013-03-03 04:52:00,0.0,-4.0,-100.00,NNE,15,0.0,0.0,86,-99.99,,,-99.99,,2013-03-03 10:52:00,
2013-03-03 05:01:00,-2.0,-5.0,-100.00,North,0,0.0,0.0,87,-99.99,,,-99.99,,2013-03-03 11:01:00,
2013-03-03 05:22:00,-2.0,-5.0,-100.00,North,0,0.0,0.0,87,-99.99,,,-99.99,,2013-03-03 11:22:00,
2013-03-03 05:32:00,-2.0,-5.0,-100.00,North,0,0.0,0.0,87,-99.99,,,-99.99,,2013-03-03 11:32:00,
2013-03-03 05:42:00,-2.0,-5.0,-100.00,North,0,0.0,0.0,87,-99.99,,,-99.99,,2013-03-03 11:42:00,
2013-03-03 05:52:00,-2.0,-5.0,-100.00,North,0,0.0,0.0,87,-99.99,,,-99.99,,2013-03-03 11:52:00,
2013-03-03 06:01:00,-3.0,-5.0,-100.00,North,0,0.0,0.0,88,-99.99,,,-99.99,,2013-03-03 12:01:00,
2013-03-03 06:22:00,-3.0,-5.0,-100.00,North,0,0.0,0.0,88,-99.99,,,-99.99,,2013-03-03 12:22:00,
2013-03-03 06:32:00,-3.0,-5.0,-100.00,North,0,0.0,0.0,88,-99.99,,,-99.99,,2013-03-03 12:32:00,
2013-03-03 06:43:00,-3.0,-5.0,-100.00,North,0,0.0,0.0,88,-99.99,,,-99.99,,2013-03-03 12:43:00,
2013-03-03 06:53:00,-3.0,-5.0,-100.00,North,0,0.0,0.0,88,-99.99,,,-99.99,,2013-03-03 12:53:00,
2013-03-03 07:01:00,-3.0,-6.0,-100.00,ENE,60,0.0,0.0,88,-99.99,,,-99.99,,2013-03-03 13:01:00,
2013-03-03 07:22:00,-3.0,-6.0,-100.00,ENE,60,0.0,0.0,88,-99.99,,,-99.99,,2013-03-03 13:22:00,
2013-03-03 07:32:00,-3.0,-6.0,-100.00,ENE,60,0.0,0.0,88,-99.99,,,-99.99,,2013-03-03 13:32:00,
2013-03-03 07:42:00,-3.0,-6.0,-100.00,ENE,60,0.0,0.0,88,-99.99,,,-99.99,,2013-03-03 13:42:00,
2013-03-03 07:52:00,-3.0,-6.0,-100.00,ENE,60,0.0,0.0,88,-99.99,,,-99.99,,2013-03-03 13:52:00,
2013-03-03 08:01:00,9.0,6.0,-100.00,NE,50,0.0,0.0,88,-99.99,,,-99.99,,2013-03-03 14:01:00,
2013-03-03 08:22:00,9.0,6.0,-100.00,NE,50,0.0,0.0,88,-99.99,,,-99.99,,2013-03-03 14:22:00,
2013-03-03 08:32:00,9.0,6.0,-100.00,NE,50,0.0,0.0,88,-99.99,,,-99.99,,2013-03-03 14:32:00,
2013-03-03 08:42:00,9.0,6.0,-100.00,NE,50,0.0,0.0,88,-99.99,,,-99.99,,2013-03-03 14:42:00,
2013-03-03 08:52:00,9.0,6.0,-100.00,NE,50,0.0,0.0,88,-99.99,,,-99.99,,2013-03-03 14:52:00,
2013-03-03 09:01:00,13.0,4.0,-100.00,ENE,65,0.0,0.0,67,-99.99,,,-99.99,,2013-03-03 15:01:00,
2013-03-03 09:22:00,13.0,4.0,-100.00,ENE,65,0.0,0.0,67,-99.99,,,-99.99,,2013-03-03 15:22:00,
2013-03-03 09:32:00,13.0,4.0,-100.00,ENE,65,0.0,0.0,67,-99.99,,,-99.99,,2013-03-03 15:32:00,
2013-03-03 09:42:00,13.0,4.0,-100.00,ENE,65,0.0,0.0,67,-99.99,,,-99.99,,2013-03-03 15:42:00,
2013-03-03 09:52:00,13.0,4.0,-100.00,ENE,65,0.0,0.0,67,-99.99,,,-99.99,,2013-03-03 15:52:00,
2013-03-03 10:01:00,17.0,3.0,-100.00,East,100,0.0,0.0,53,-99.99,,,-99.99,,2013-03-03 16:01:00,
2013-03-03 10:22:00,17.0,3.0,-100.00,East,100,0.0,0.0,53,-99.99,,,-99.99,,2013-03-03 16:22:00,
2013-03-03 10:32:00,17.0,3.0,-100.00,East,100,0.0,0.0,53,-99.99,,,-99.99,,2013-03-03 16:32:00,
2013-03-03 10:42:00,17.0,3.0,-100.00,East,100,0.0,0.0,53,-99.99,,,-99.99,,2013-03-03 16:42:00,
2013-03-03 10:52:00,17.0,3.0,-100.00,East,100,0.0,0.0,53,-99.99,,,-99.99,,2013-03-03 16:52:00,
2013-03-03 11:01:00,20.0,4.0,-100.00,ESE,115,0.0,0.0,50,-99.99,,,-99.99,,2013-03-03 17:01:00,
2013-03-03 11:22:00,20.0,4.0,-100.00,ESE,115,0.0,0.0,50,-99.99,,,-99.99,,2013-03-03 17:22:00,
2013-03-03 11:32:00,20.0,4.0,-100.00,ESE,115,0.0,0.0,50,-99.99,,,-99.99,,2013-03-03 17:32:00,
2013-03-03 11:42:00,20.0,4.0,-100.00,ESE,115,0.0,0.0,50,-99.99,,,-99.99,,2013-03-03 17:42:00,
2013-03-03 11:52:00,20.0,4.0,-100.00,ESE,115,0.0,0.0,50,-99.99,,,-99.99,,2013-03-03 17:52:00,
2013-03-03 12:01:00,22.0,1.0,-100.00,ESE,120,0.0,0.0,39,-99.99,,,-99.99,,2013-03-03 18:01:00,
2013-03-03 12:22:00,22.0,1.0,-100.00,ESE,120,0.0,0.0,39,-99.99,,,-99.99,,2013-03-03 18:22:00,
2013-03-03 12:32:00,22.0,1.0,-100.00,ESE,120,0.0,0.0,39,-99.99,,,-99.99,,2013-03-03 18:32:00,
2013-03-03 12:42:00,22.0,1.0,-100.00,ESE,120,0.0,0.0,39,-99.99,,,-99.99,,2013-03-03 18:42:00,
2013-03-03 12:52:00,22.0,1.0,-100.00,ESE,120,0.0,0.0,39,-99.99,,,-99.99,,2013-03-03 18:52:00,
2013-03-03 13:01:00,26.0,0.0,-100.00,SW,225,0.0,0.0,32,-99.99,,,-99.99,,2013-03-03 19:01:00,
2013-03-03 13:22:00,26.0,0.0,-100.00,SW,225,0.0,0.0,32,-99.99,,,-99.99,,2013-03-03 19:22:00,
2013-03-03 13:32:00,26.0,0.0,-100.00,SW,225,0.0,0.0,32,-99.99,,,-99.99,,2013-03-03 19:32:00,
2013-03-03 13:42:00,26.0,0.0,-100.00,SW,225,0.0,0.0,32,-99.99,,,-99.99,,2013-03-03 19:42:00,
2013-03-03 13:52:00,26.0,0.0,-100.00,SW,225,0.0,0.0,32,-99.99,,,-99.99,,2013-03-03 19:52:00,
2013-03-03 14:01:00,28.0,-2.0,-100.00,SW,215,0.0,0.0,27,-99.99,,,-99.99,,2013-03-03 20:01:00,
2013-03-03 14:22:00,28.0,-2.0,-100.00,SW,215,0.0,0.0,27,-99.99,,,-99.99,,2013-03-03 20:22:00,
2013-03-03 14:32:00,28.0,-2.0,-100.00,SW,215,0.0,0.0,27,-99.99,,,-99.99,,2013-03-03 20:32:00,
2013-03-03 14:42:00,28.0,-2.0,-100.00,SW,215,0.0,0.0,27,-99.99,,,-99.99,,2013-03-03 20:42:00,
2013-03-03 14:53:00,28.0,-2.0,-100.00,SW,215,0.0,0.0,27,-99.99,,,-99.99,,2013-03-03 20:53:00,
2013-03-03 15:01:00,29.0,-2.0,-100.00,WSW,240,0.0,0.0,26,-99.99,,,-99.99,,2013-03-03 21:01:00,
2013-03-03 15:22:00,29.0,-2.0,-100.00,WSW,240,0.0,0.0,26,-99.99,,,-99.99,,2013-03-03 21:22:00,
2013-03-03 15:32:00,29.0,-2.0,-100.00,WSW,240,0.0,0.0,26,-99.99,,,-99.99,,2013-03-03 21:32:00,
2013-03-03 15:42:00,29.0,-2.0,-100.00,WSW,240,0.0,0.0,26,-99.99,,,-99.99,,2013-03-03 21:42:00,
2013-03-03 15:52:00,29.0,-2.0,-100.00,WSW,240,0.0,0.0,26,-99.99,,,-99.99,,2013-03-03 21:52:00,
2013-03-03 16:01:00,29.0,-3.0,-100.00,SW,220,0.0,0.0,25,-99.99,,,-99.99,,2013-03-03 22:01:00,
2013-03-03 16:22:00,29.0,-3.0,-100.00,SW,220,0.0,0.0,25,-99.99,,,-99.99,,2013-03-03 22:22:00,
2013-03-03 16:32:00,29.0,-3.0,-100.00,SW,220,0.0,0.0,25,-99.99,,,-99.99,,2013-03-03 22:32:00,
2013-03-03 16:42:00,29.0,-3.0,-100.00,SW,220,0.0,0.0,25,-99.99,,,-99.99,,2013-03-03 22:42:00,
2013-03-03 16:52:00,29.0,-3.0,-100.00,SW,220,0.0,0.0,25,-99.99,,,-99.99,,2013-03-03 22:52:00,
2013-03-03 17:01:00,26.0,-3.0,-100.00,SSW,200,0.0,0.0,28,-99.99,,,-99.99,,2013-03-03 23:01:00,
2013-03-03 17:22:00,26.0,-3.0,-100.00,SSW,200,0.0,0.0,28,-99.99,,,-99.99,,2013-03-03 23:22:00,
2013-03-03 17:32:00,26.0,-3.0,-100.00,SSW,200,0.0,0.0,28,-99.99,,,-99.99,,2013-03-03 23:32:00,
2013-03-03 17:42:00,26.0,-3.0,-100.00,SSW,200,0.0,0.0,28,-99.99,,,-99.99,,2013-03-03 23:42:00,
2013-03-03 17:52:00,26.0,-3.0,-100.00,SSW,200,0.0,0.0,28,-99.99,,,-99.99,,2013-03-03 23:52:00,
2013-03-03 18:01:00,21.0,-5.0,-100.00,NNE,25,0.0,0.0,32,-99.99,,,-99.99,,2013-03-04 00:01:00,
2013-03-03 18:22:00,21.0,-5.0,-100.00,NNE,25,0.0,0.0,32,-99.99,,,-99.99,,2013-03-04 00:22:00,
2013-03-03 18:32:00,21.0,-5.0,-100.00,NNE,25,0.0,0.0,32,-99.99,,,-99.99,,2013-03-04 00:32:00,
2013-03-03 18:42:00,21.0,-5.0,-100.00,NNE,25,0.0,0.0,32,-99.99,,,-99.99,,2013-03-04 00:42:00,
2013-03-03 18:52:00,21.0,-5.0,-100.00,NNE,25,0.0,0.0,32,-99.99,,,-99.99,,2013-03-04 00:52:00,
2013-03-03 19:01:00,16.0,-4.0,-100.00,NNW,340,0.0,0.0,40,-99.99,,,-99.99,,2013-03-04 01:01:00,
2013-03-03 19:22:00,16.0,-4.0,-100.00,NNW,340,0.0,0.0,40,-99.99,,,-99.99,,2013-03-04 01:22:00,
2013-03-03 19:32:00,16.0,-4.0,-100.00,NNW,340,0.0,0.0,40,-99.99,,,-99.99,,2013-03-04 01:32:00,
2013-03-03 19:42:00,16.0,-4.0,-100.00,NNW,340,0.0,0.0,40,-99.99,,,-99.99,,2013-03-04 01:42:00,
2013-03-03 19:52:00,16.0,-4.0,-100.00,NNW,340,0.0,0.0,40,-99.99,,,-99.99,,2013-03-04 01:52:00,
2013-03-03 20:01:00,8.0,-7.0,-100.00,NNW,335,0.0,0.0,51,-99.99,,,-99.99,,2013-03-04 02:01:00,
2013-03-03 20:22:00,8.0,-7.0,-100.00,NNW,335,0.0,0.0,51,-99.99,,,-99.99,,2013-03-04 02:22:00,
2013-03-03 20:32:00,8.0,-7.0,-100.00,NNW,335,0.0,0.0,51,-99.99,,,-99.99,,2013-03-04 02:32:00,
2013-03-03 20:42:00,8.0,-7.0,-100.00,NNW,335,0.0,0.0,51,-99.99,,,-99.99,,2013-03-04 02:42:00,
2013-03-03 20:52:00,8.0,-7.0,-100.00,NNW,335,0.0,0.0,51,-99.99,,,-99.99,,2013-03-04 02:52:00,
2013-03-03 21:01:00,8.0,-4.0,-100.00,ENE,60,0.0,0.0,58,-99.99,,,-99.99,,2013-03-04 03:01:00,
2013-03-03 21:22:00,8.0,-4.0,-100.00,ENE,60,0.0,0.0,58,-99.99,,,-99.99,,2013-03-04 03:22:00,
2013-03-03 21:32:00,8.0,-4.0,-100.00,ENE,60,0.0,0.0,58,-99.99,,,-99.99,,2013-03-04 03:32:00,
2013-03-03 21:42:00,8.0,-4.0,-100.00,ENE,60,0.0,0.0,58,-99.99,,,-99.99,,2013-03-04 03:42:00,
2013-03-03 21:52:00,8.0,-4.0,-100.00,ENE,60,0.0,0.0,58,-99.99,,,-99.99,,2013-03-04 03:52:00,
2013-03-03 22:01:00,5.0,-5.0,-100.00,NNW,340,0.0,0.0,62,-99.99,,,-99.99,,2013-03-04 04:01:00,
2013-03-03 22:22:00,5.0,-5.0,-100.00,NNW,340,0.0,0.0,62,-99.99,,,-99.99,,2013-03-04 04:22:00,
2013-03-03 22:32:00,5.0,-5.0,-100.00,NNW,340,0.0,0.0,62,-99.99,,,-99.99,,2013-03-04 04:32:00,
2013-03-03 22:42:00,5.0,-5.0,-100.00,NNW,340,0.0,0.0,62,-99.99,,,-99.99,,2013-03-04 04:42:00,
2013-03-03 22:52:00,5.0,-5.0,-100.00,NNW,340,0.0,0.0,62,-99.99,,,-99.99,,2013-03-04 04:52:00,
2013-03-03 23:22:00,3.0,-6.0,-100.00,North,0,0.0,0.0,66,-99.99,,,-99.99,,2013-03-04 05:22:00,
2013-03-03 23:32:00,3.0,-6.0,-100.00,North,0,0.0,0.0,66,-99.99,,,-99.99,,2013-03-04 05:32:00,
2013-03-03 23:43:00,3.0,-6.0,-100.00,North,0,0.0,0.0,66,-99.99,,,-99.99,,2013-03-04 05:43:00,
2013-03-03 23:52:00,3.0,-6.0,-100.00,North,0,0.0,0.0,66,-99.99,,,-99.99,,2013-03-04 05:52:00,